Terminal Aerodrome Forecast
Issued by NWS Atlanta, GA

Home | Current Version | Previous Version | Text Only | Print | Product List | Glossary On
Versions: 1 2 3 4 5 6 7 8 9 10 11 12 13 14 15 16 17 18 19 20 21 22 23 24 25 26 27 28 29 30 31 32 33 34 35
490
FTUS42 KFFC 240747 AAA
TAFATL
TAF AMD
KATL 240747Z 2408/2512 06009KT 4SM -DZ BR OVC007
     FM241000 35004KT 4SM -DZ OVC004
     FM241600 34007KT P6SM VCSH BKN008
     FM250000 35003KT P6SM BKN008=

USA.gov is the U.S. government's official web portal to all federal, state and local government web resources and services.